createdAt,value
2022-10-09T00:01:25.106Z,23.58
2022-10-09T00:03:53.718Z,23.85
2022-10-09T00:06:23.463Z,22.60
2022-10-09T00:08:50.934Z,25.27
2022-10-09T00:11:23.418Z,25.75
2022-10-09T00:13:51.466Z,24.90
2022-10-09T00:16:19.417Z,24.35
2022-10-09T00:18:47.164Z,26.83
2022-10-09T00:21:29.177Z,24.25
2022-10-09T00:23:59.053Z,25.25
2022-10-09T00:26:26.637Z,27.10
2022-10-09T00:28:53.616Z,27.17
2022-10-09T00:31:21.060Z,22.48
2022-10-09T00:33:48.232Z,37.25
2022-10-09T00:36:17.901Z,21.45
2022-10-09T00:38:44.951Z,23.30
2022-10-09T00:41:17.832Z,25.25
2022-10-09T00:43:50.514Z,25.30
2022-10-09T00:46:27.592Z,24.05
2022-10-09T00:49:09.656Z,25.70
2022-10-09T00:51:37.251Z,24.10
2022-10-09T00:54:05.999Z,25.35
2022-10-09T00:56:34.454Z,23.60
2022-10-09T00:59:01.908Z,24.17
2022-10-09T01:01:28.752Z,24.85
2022-10-09T01:03:55.689Z,28.70
2022-10-09T01:06:31.446Z,24.25
2022-10-09T01:09:03.892Z,26.42
2022-10-09T01:11:49.487Z,25.45
2022-10-09T01:14:16.258Z,27.13
2022-10-09T01:16:50.766Z,25.48
2022-10-09T01:19:50.561Z,26.90
2022-10-09T01:22:39.206Z,25.38
2022-10-09T01:25:21.226Z,28.52
2022-10-09T01:27:48.515Z,28.20
2022-10-09T01:30:15.309Z,27.38
2022-10-09T01:32:48.965Z,22.67
2022-10-09T01:35:17.843Z,23.58
2022-10-09T01:37:46.101Z,24.55
2022-10-09T01:40:15.156Z,24.75
2022-10-09T01:42:42.280Z,31.60
2022-10-09T01:45:09.814Z,26.90
2022-10-09T01:47:37.166Z,22.77
2022-10-09T01:50:12.917Z,26.60
2022-10-09T01:53:16.275Z,28.10
2022-10-09T01:55:49.077Z,26.77
2022-10-09T01:58:27.688Z,28.08
2022-10-09T02:01:18.988Z,23.25
2022-10-09T02:03:49.235Z,26.42
2022-10-09T02:06:18.894Z,24.08
2022-10-09T02:08:48.433Z,25.90
2022-10-09T02:11:15.727Z,24.67
2022-10-09T02:13:44.243Z,34.20
2022-10-09T02:16:28.272Z,26.58
2022-10-09T02:19:07.351Z,21.92
2022-10-09T02:21:46.157Z,20.83
2022-10-09T02:24:19.311Z,24.80
2022-10-09T02:26:46.383Z,21.90
2022-10-09T02:29:14.465Z,25.25
2022-10-09T02:31:43.335Z,31.52
2022-10-09T02:34:12.759Z,25.20
2022-10-09T02:36:40.517Z,28.90
2022-10-09T02:39:08.057Z,25.98
2022-10-09T02:41:35.618Z,20.20
2022-10-09T02:44:03.661Z,20.58
2022-10-09T02:46:30.790Z,20.70
2022-10-09T02:48:57.898Z,26.83
2022-10-09T02:51:25.227Z,21.23
2022-10-09T02:53:53.839Z,23.45
2022-10-09T02:56:22.195Z,20.50
2022-10-09T02:58:49.105Z,25.75
2022-10-09T03:01:16.519Z,20.98
2022-10-09T03:03:43.486Z,24.92
2022-10-09T03:06:15.837Z,18.13
2022-10-09T03:08:45.433Z,17.50
2022-10-09T03:11:14.151Z,17.38
2022-10-09T03:13:41.192Z,23.77
2022-10-09T03:16:13.366Z,18.25
2022-10-09T03:18:40.905Z,14.73
2022-10-09T03:21:08.784Z,16.88
2022-10-09T03:23:36.189Z,17.38
2022-10-09T03:26:05.739Z,15.43
2022-10-09T03:28:32.587Z,12.90
2022-10-09T03:30:59.723Z,17.27
2022-10-09T03:33:26.554Z,15.80
2022-10-09T03:35:53.433Z,15.95
2022-10-09T03:38:20.599Z,15.05
2022-10-09T03:40:47.395Z,14.88
2022-10-09T03:43:14.251Z,18.60
2022-10-09T03:45:42.676Z,16.77
2022-10-09T03:48:10.629Z,18.25
2022-10-09T03:50:38.538Z,15.43
2022-10-09T03:53:06.817Z,17.00
2022-10-09T03:55:34.032Z,12.40
2022-10-09T03:58:00.856Z,17.40
2022-10-09T04:00:28.328Z,19.33
2022-10-09T04:02:55.179Z,13.52
2022-10-09T04:05:22.079Z,19.80
2022-10-09T04:07:49.211Z,18.13
2022-10-09T04:10:16.206Z,15.35
2022-10-09T04:12:43.046Z,11.85
2022-10-09T04:15:10.658Z,14.68
2022-10-09T04:17:37.760Z,15.75
2022-10-09T04:20:04.719Z,11.63
2022-10-09T04:22:31.885Z,15.02
2022-10-09T04:24:58.677Z,13.00
2022-10-09T04:27:25.488Z,13.60
2022-10-09T04:29:52.560Z,11.35
2022-10-09T04:32:19.325Z,15.95
2022-10-09T04:34:46.111Z,13.57
2022-10-09T04:37:13.147Z,12.15
2022-10-09T04:39:40.394Z,12.95
2022-10-09T04:42:07.446Z,12.63
2022-10-09T04:44:34.430Z,12.50
2022-10-09T04:47:01.224Z,13.65
2022-10-09T04:49:28.019Z,11.02
2022-10-09T04:51:55.077Z,15.50
2022-10-09T04:54:22.435Z,15.23
2022-10-09T04:56:49.235Z,12.65
2022-10-09T04:59:16.335Z,9.95
2022-10-09T05:01:43.212Z,15.15
2022-10-09T05:04:10.073Z,12.82
2022-10-09T05:06:37.169Z,10.07
2022-10-09T05:09:04.270Z,8.95
2022-10-09T05:11:31.111Z,8.70
2022-10-09T05:13:58.612Z,10.10
2022-10-09T05:16:27.966Z,7.70
2022-10-09T05:18:56.726Z,7.32
2022-10-09T05:21:25.578Z,9.98
2022-10-09T05:23:54.560Z,7.88
2022-10-09T05:26:23.138Z,6.70
2022-10-09T05:28:50.723Z,7.90
2022-10-09T05:31:28.812Z,8.98
2022-10-09T05:33:59.102Z,9.82
2022-10-09T05:36:25.972Z,9.23
2022-10-09T05:38:52.867Z,13.27
2022-10-09T05:41:20.190Z,10.35
2022-10-09T05:43:48.520Z,11.45
2022-10-09T05:46:21.274Z,11.75
2022-10-09T05:48:53.676Z,13.38
2022-10-09T05:51:28.554Z,8.57
2022-10-09T05:53:56.899Z,11.70
2022-10-09T05:56:32.569Z,9.93
2022-10-09T05:59:03.762Z,9.02
2022-10-09T06:01:33.274Z,12.23
2022-10-09T06:04:00.757Z,9.23
2022-10-09T06:06:30.227Z,10.35
2022-10-09T06:08:58.532Z,11.43
2022-10-09T06:11:28.764Z,12.85
2022-10-09T06:13:56.549Z,10.13
2022-10-09T06:16:26.478Z,10.45
2022-10-09T06:18:54.479Z,9.88
2022-10-09T06:21:22.079Z,10.68
2022-10-09T06:23:53.847Z,9.23
2022-10-09T06:26:21.550Z,12.73
2022-10-09T06:28:49.095Z,10.43
2022-10-09T06:31:21.500Z,6.68
2022-10-09T06:33:49.549Z,10.50
2022-10-09T06:36:22.037Z,8.48
2022-10-09T06:38:49.621Z,6.35
2022-10-09T06:41:18.844Z,7.68
2022-10-09T06:43:54.294Z,11.77
2022-10-09T06:46:24.572Z,7.65
2022-10-09T06:48:52.084Z,7.55
2022-10-09T06:51:20.680Z,12.48
2022-10-09T06:53:53.161Z,6.05
2022-10-09T06:56:21.574Z,7.88
2022-10-09T06:58:49.332Z,7.32
2022-10-09T07:01:18.907Z,8.40
2022-10-09T07:03:48.756Z,11.75
2022-10-09T07:06:18.573Z,7.35
2022-10-09T07:08:47.763Z,9.68
2022-10-09T07:11:22.799Z,8.90
2022-10-09T07:13:51.547Z,9.82
2022-10-09T07:16:23.953Z,11.80
2022-10-09T07:18:52.030Z,12.38
2022-10-09T07:21:19.668Z,9.85
2022-10-09T07:23:46.916Z,9.75
2022-10-09T07:26:18.355Z,8.25
2022-10-09T07:28:45.786Z,10.57
2022-10-09T07:31:13.285Z,8.18
2022-10-09T07:33:41.750Z,7.95
2022-10-09T07:36:09.681Z,6.95
2022-10-09T07:38:36.762Z,6.97
2022-10-09T07:41:06.470Z,7.53
2022-10-09T07:43:38.076Z,13.52
2022-10-09T07:46:06.774Z,10.48
2022-10-09T07:48:34.874Z,11.57
2022-10-09T07:51:17.750Z,11.65
2022-10-09T07:53:45.086Z,8.40
2022-10-09T07:56:16.255Z,9.88
2022-10-09T07:58:43.447Z,11.43
2022-10-09T08:01:12.403Z,13.07
2022-10-09T08:03:41.187Z,10.75
2022-10-09T08:06:08.297Z,10.27
2022-10-09T08:08:35.341Z,9.57
2022-10-09T08:11:08.848Z,10.05
2022-10-09T08:13:36.192Z,11.30
2022-10-09T08:16:03.374Z,9.95
2022-10-09T08:18:30.337Z,9.63
2022-10-09T08:21:06.346Z,9.57
2022-10-09T08:23:33.948Z,8.07
2022-10-09T08:26:01.214Z,12.43
2022-10-09T08:28:28.087Z,10.60
2022-10-09T08:30:55.054Z,8.55
2022-10-09T08:33:23.470Z,8.82
2022-10-09T08:35:51.263Z,10.15
2022-10-09T08:38:44.933Z,7.80
2022-10-09T08:41:10.181Z,4.25
2022-10-09T08:43:41.406Z,6.13
2022-10-09T08:46:20.938Z,5.13
2022-10-09T08:48:49.267Z,7.00
2022-10-09T08:51:36.547Z,8.32
2022-10-09T08:54:34.912Z,10.15
2022-10-09T08:57:04.575Z,8.63
2022-10-09T08:59:31.649Z,8.13
2022-10-09T09:02:24.385Z,7.43
2022-10-09T09:05:22.349Z,7.63
2022-10-09T09:08:10.023Z,7.43
2022-10-09T09:10:57.365Z,9.95
2022-10-09T09:13:35.721Z,6.55
2022-10-09T09:16:59.115Z,6.00
2022-10-09T09:19:41.066Z,5.78
2022-10-09T09:22:12.508Z,6.13
2022-10-09T09:24:56.578Z,8.93
2022-10-09T09:27:30.670Z,7.95
2022-10-09T09:30:16.907Z,13.23
2022-10-09T09:33:09.701Z,9.32
2022-10-09T09:35:49.519Z,8.43
2022-10-09T09:38:16.596Z,11.23
2022-10-09T09:40:47.316Z,6.75
2022-10-09T09:43:23.826Z,6.75
2022-10-09T09:45:57.723Z,8.13
2022-10-09T09:48:39.530Z,10.73
2022-10-09T09:51:30.490Z,7.95
2022-10-09T09:54:04.280Z,8.35
2022-10-09T09:57:10.244Z,9.88
2022-10-09T09:59:38.895Z,7.65
2022-10-09T10:02:06.017Z,6.18
2022-10-09T10:04:33.031Z,7.25
2022-10-09T10:07:00.809Z,8.32
2022-10-09T10:09:27.822Z,8.30
2022-10-09T10:11:58.160Z,6.22
2022-10-09T10:14:25.264Z,7.57
2022-10-09T10:16:54.650Z,7.47
2022-10-09T10:19:24.233Z,8.05
2022-10-09T10:22:06.974Z,8.07
2022-10-09T10:24:42.711Z,7.07
2022-10-09T10:27:33.438Z,5.68
2022-10-09T10:30:04.083Z,9.95
2022-10-09T10:32:34.889Z,6.32
2022-10-09T10:35:06.682Z,5.78
2022-10-09T10:37:41.942Z,5.82
2022-10-09T10:40:17.510Z,5.13
2022-10-09T10:42:59.252Z,5.82
2022-10-09T10:45:45.107Z,7.75
2022-10-09T10:48:16.181Z,2.63
2022-10-09T10:50:48.524Z,2.97
2022-10-09T10:53:36.979Z,5.53
2022-10-09T10:56:08.535Z,6.63
2022-10-09T10:58:57.887Z,4.55
2022-10-09T11:01:58.538Z,6.40
2022-10-09T11:05:00.656Z,3.08
2022-10-09T11:07:55.491Z,5.60
2022-10-09T11:10:31.448Z,3.75
2022-10-09T11:13:06.496Z,6.50
2022-10-09T11:15:43.072Z,5.45
2022-10-09T11:18:16.048Z,4.13
2022-10-09T11:20:47.992Z,3.70
2022-10-09T11:23:31.657Z,4.07
2022-10-09T11:26:13.660Z,4.47
2022-10-09T11:28:49.360Z,5.35
2022-10-09T11:31:20.326Z,5.10
2022-10-09T11:33:52.831Z,6.65
2022-10-09T11:36:33.253Z,6.82
2022-10-09T11:39:05.736Z,7.40
2022-10-09T11:41:35.074Z,4.93
2022-10-09T11:44:39.511Z,3.53
2022-10-09T11:47:17.673Z,5.05
2022-10-09T11:49:56.907Z,8.57
2022-10-09T11:52:41.823Z,6.13
2022-10-09T11:55:19.779Z,4.78
2022-10-09T11:57:47.143Z,4.65
2022-10-09T12:00:16.096Z,3.28
2022-10-09T12:02:44.035Z,4.63
2022-10-09T12:05:19.663Z,4.32
2022-10-09T12:07:46.856Z,5.20
2022-10-09T12:10:33.609Z,7.45
2022-10-09T12:13:06.210Z,6.78
2022-10-09T12:15:40.412Z,8.07
2022-10-09T12:18:31.584Z,2.28
2022-10-09T12:21:01.856Z,4.97
2022-10-09T12:23:33.160Z,5.82
2022-10-09T12:26:00.632Z,3.03
2022-10-09T12:28:36.720Z,3.05
2022-10-09T12:31:05.904Z,4.75
2022-10-09T12:33:46.773Z,6.47
2022-10-09T12:36:21.965Z,4.57
2022-10-09T12:38:48.903Z,5.70
2022-10-09T12:41:32.417Z,7.72
2022-10-09T12:43:59.470Z,3.78
2022-10-09T12:46:31.183Z,5.18
2022-10-09T12:48:58.719Z,5.20
2022-10-09T12:51:28.113Z,5.07
2022-10-09T12:53:55.899Z,4.97
2022-10-09T12:56:26.126Z,4.78
2022-10-09T12:58:53.470Z,3.65
2022-10-09T13:01:20.927Z,3.95
2022-10-09T13:04:03.558Z,3.58
2022-10-09T13:06:38.302Z,3.33
2022-10-09T13:09:07.522Z,4.80
2022-10-09T13:11:38.167Z,5.03
2022-10-09T13:14:05.311Z,5.40
2022-10-09T13:16:42.830Z,7.47
2022-10-09T13:19:30.622Z,8.13
2022-10-09T13:22:20.540Z,3.90
2022-10-09T13:24:50.579Z,4.47
2022-10-09T13:27:19.632Z,5.22
2022-10-09T13:29:47.989Z,4.75
2022-10-09T13:32:17.040Z,5.03
2022-10-09T13:34:44.204Z,4.85
2022-10-09T13:37:13.984Z,4.28
2022-10-09T13:39:41.364Z,7.78
2022-10-09T13:42:10.923Z,3.67
2022-10-09T13:44:37.733Z,2.58
2022-10-09T13:47:05.451Z,3.78
2022-10-09T13:49:32.279Z,4.15
2022-10-09T13:51:59.135Z,4.55
2022-10-09T13:54:26.322Z,4.60
2022-10-09T13:56:53.187Z,5.57
2022-10-09T13:59:20.059Z,3.03
2022-10-09T14:01:47.187Z,6.05
2022-10-09T14:04:14.084Z,7.68
2022-10-09T14:06:40.888Z,3.78
2022-10-09T14:09:08.001Z,6.47
2022-10-09T14:11:34.900Z,5.10
2022-10-09T14:14:02.134Z,3.13
2022-10-09T14:16:29.916Z,3.13
2022-10-09T14:19:01.713Z,10.98
2022-10-09T14:21:29.281Z,4.43
2022-10-09T14:23:58.509Z,2.30
2022-10-09T14:26:26.427Z,11.27
2022-10-09T14:28:54.325Z,5.22
2022-10-09T14:31:21.635Z,3.92
2022-10-09T14:33:48.678Z,6.43
2022-10-09T14:36:21.303Z,5.85
2022-10-09T14:38:49.006Z,9.13
2022-10-09T14:41:18.020Z,9.23
2022-10-09T14:43:46.132Z,12.82
2022-10-09T14:46:17.497Z,7.95
2022-10-09T14:48:45.668Z,19.15
2022-10-09T14:51:24.519Z,13.90
2022-10-09T14:53:51.791Z,7.00
2022-10-09T14:56:20.374Z,13.85
2022-10-09T14:58:47.746Z,9.30
2022-10-09T15:01:17.059Z,6.93
2022-10-09T15:03:44.125Z,6.07
2022-10-09T15:06:12.393Z,5.15
2022-10-09T15:08:41.757Z,4.60
2022-10-09T15:11:10.182Z,8.95
2022-10-09T15:13:37.501Z,6.35
2022-10-09T15:16:10.781Z,5.90
2022-10-09T15:18:37.746Z,10.65
2022-10-09T15:21:04.733Z,11.00
2022-10-09T15:23:32.092Z,16.25
2022-10-09T15:26:00.717Z,13.20
2022-10-09T15:28:27.837Z,7.18
2022-10-09T15:30:58.337Z,5.40
2022-10-09T15:33:25.738Z,5.45
2022-10-09T15:35:53.408Z,9.70
2022-10-09T15:38:23.164Z,11.05
2022-10-09T15:40:53.688Z,12.90
2022-10-09T15:43:22.080Z,9.85
2022-10-09T15:45:49.546Z,7.78
2022-10-09T15:48:21.385Z,8.30
2022-10-09T15:50:51.550Z,11.77
2022-10-09T15:53:20.263Z,11.20
2022-10-09T15:55:49.121Z,9.07
2022-10-09T15:58:17.491Z,12.55
2022-10-09T16:00:47.514Z,13.20
2022-10-09T16:03:15.972Z,10.88
2022-10-09T16:05:45.125Z,13.57
2022-10-09T16:08:12.640Z,10.27
2022-10-09T16:10:49.200Z,8.85
2022-10-09T16:13:16.800Z,12.63
2022-10-09T16:15:47.049Z,7.53
2022-10-09T16:18:15.330Z,7.80
2022-10-09T16:20:42.561Z,7.13
2022-10-09T16:23:10.126Z,43.72
2022-10-09T16:25:39.045Z,22.95
2022-10-09T16:28:07.670Z,16.27
2022-10-09T16:30:42.614Z,11.20
2022-10-09T16:33:12.640Z,24.05
2022-10-09T16:35:40.131Z,14.60
2022-10-09T16:38:07.203Z,14.38
2022-10-09T16:43:21.056Z,15.80
2022-10-09T16:45:47.932Z,11.45
2022-10-09T16:48:14.938Z,12.50
2022-10-09T16:50:42.399Z,10.38
2022-10-09T16:53:09.315Z,12.65
2022-10-09T16:55:37.379Z,8.93
2022-10-09T16:58:05.031Z,21.52
2022-10-09T17:00:32.040Z,11.02
2022-10-09T17:02:59.357Z,12.70
2022-10-09T17:05:26.292Z,10.68
2022-10-09T17:07:54.410Z,12.15
2022-10-09T17:10:21.312Z,13.32
2022-10-09T17:12:48.366Z,13.48
2022-10-09T17:15:15.201Z,14.57
2022-10-09T17:17:42.444Z,14.70
2022-10-09T17:20:09.435Z,14.07
2022-10-09T17:22:36.497Z,14.02
2022-10-09T17:25:03.545Z,14.95
2022-10-09T17:27:30.804Z,10.65
2022-10-09T17:29:57.637Z,17.83
2022-10-09T17:32:25.270Z,17.85
2022-10-09T17:34:52.364Z,14.65
2022-10-09T17:37:19.163Z,16.17
2022-10-09T17:39:51.117Z,23.15
2022-10-09T17:42:19.233Z,21.98
2022-10-09T17:44:45.996Z,18.00
2022-10-09T17:47:12.883Z,19.58
2022-10-09T17:49:39.935Z,20.23
2022-10-09T17:52:06.783Z,40.90
2022-10-09T17:54:33.698Z,30.23
2022-10-09T17:57:01.429Z,17.75
2022-10-09T17:59:28.387Z,20.08
2022-10-09T18:01:55.652Z,21.80
2022-10-09T18:04:22.737Z,23.80
2022-10-09T18:06:49.775Z,20.15
2022-10-09T18:09:16.674Z,26.20
2022-10-09T18:11:43.755Z,21.48
2022-10-09T18:14:10.782Z,37.47
2022-10-09T18:16:38.509Z,15.88
2022-10-09T18:19:12.378Z,24.23
2022-10-09T18:21:41.815Z,20.45
2022-10-09T18:24:09.642Z,17.17
2022-10-09T18:26:36.553Z,23.52
2022-10-09T18:29:03.815Z,24.25
2022-10-09T18:31:31.662Z,27.42
2022-10-09T18:33:59.411Z,46.00
2022-10-09T18:36:34.386Z,26.85
2022-10-09T18:39:07.292Z,36.13
2022-10-09T18:41:35.431Z,35.33
2022-10-09T18:44:03.014Z,23.85
2022-10-09T18:46:41.608Z,19.10
2022-10-09T18:49:09.954Z,17.20
2022-10-09T18:51:38.413Z,15.82
2022-10-09T18:54:06.852Z,14.75
2022-10-09T18:56:34.701Z,16.27
2022-10-09T18:59:04.632Z,16.98
2022-10-09T19:01:31.903Z,18.38
2022-10-09T19:03:58.900Z,20.52
2022-10-09T19:06:26.141Z,18.23
2022-10-09T19:08:57.628Z,18.00
2022-10-09T19:11:24.917Z,30.80
2022-10-09T19:13:51.657Z,28.95
2022-10-09T19:16:18.651Z,23.80
2022-10-09T19:18:45.552Z,28.73
2022-10-09T19:21:16.194Z,22.92
2022-10-09T19:23:44.016Z,26.98
2022-10-09T19:26:12.536Z,27.17
2022-10-09T19:28:39.760Z,24.15
2022-10-09T19:31:09.077Z,29.10
2022-10-09T19:33:38.718Z,34.60
2022-10-09T19:36:06.731Z,35.30
2022-10-09T19:38:33.591Z,25.77
2022-10-09T19:41:05.503Z,35.95
2022-10-09T19:43:33.143Z,29.92
2022-10-09T19:46:02.098Z,28.98
2022-10-09T19:48:28.955Z,30.25
2022-10-09T19:50:56.144Z,43.38
2022-10-09T19:53:22.952Z,25.13
2022-10-09T19:55:49.991Z,20.70
2022-10-09T19:58:17.950Z,24.33
2022-10-09T20:00:48.238Z,36.10
2022-10-09T20:03:15.316Z,24.02
2022-10-09T20:05:42.330Z,27.48
2022-10-09T20:08:10.051Z,23.20
2022-10-09T20:10:38.086Z,16.73
2022-10-09T20:13:05.952Z,35.60
2022-10-09T20:15:32.872Z,24.63
2022-10-09T20:18:00.046Z,18.48
2022-10-09T20:20:27.147Z,24.00
2022-10-09T20:22:54.387Z,25.80
2022-10-09T20:25:21.639Z,23.92
2022-10-09T20:27:48.516Z,23.95
2022-10-09T20:30:15.572Z,27.92
2022-10-09T20:32:42.420Z,29.75
2022-10-09T20:35:10.097Z,25.33
2022-10-09T20:37:36.956Z,22.55
2022-10-09T20:40:04.207Z,19.08
2022-10-09T20:42:31.167Z,19.58
2022-10-09T20:44:58.164Z,18.58
2022-10-09T20:47:25.070Z,17.33
2022-10-09T20:49:52.092Z,19.42
2022-10-09T20:52:18.966Z,13.77
2022-10-09T20:54:45.997Z,17.13
2022-10-09T20:57:12.751Z,13.60
2022-10-09T20:59:39.839Z,19.33
2022-10-09T21:02:06.634Z,19.02
2022-10-09T21:04:33.673Z,14.75
2022-10-09T21:07:00.490Z,19.20
2022-10-09T21:09:30.955Z,16.77
2022-10-09T21:12:00.107Z,19.50
2022-10-09T21:14:27.090Z,19.17
2022-10-09T21:16:53.876Z,17.00
2022-10-09T21:19:20.855Z,17.63
2022-10-09T21:21:50.978Z,19.02
2022-10-09T21:24:18.298Z,20.77
2022-10-09T21:26:47.236Z,16.83
2022-10-09T21:29:14.599Z,21.00
2022-10-09T21:31:42.396Z,18.15
2022-10-09T21:34:09.678Z,17.70
2022-10-09T21:37:08.888Z,17.02
2022-10-09T21:39:33.946Z,20.00
2022-10-09T21:42:00.806Z,21.23
2022-10-09T21:44:27.896Z,19.40
2022-10-09T21:46:54.687Z,17.17
2022-10-09T21:49:23.778Z,22.90
2022-10-09T21:51:50.730Z,20.75
2022-10-09T21:54:17.738Z,20.08
2022-10-09T21:56:44.578Z,20.00
2022-10-09T21:59:11.500Z,18.60
2022-10-09T22:01:38.574Z,21.42
2022-10-09T22:04:05.391Z,17.52
2022-10-09T22:06:32.193Z,19.13
2022-10-09T22:08:59.928Z,20.50
2022-10-09T22:11:26.720Z,19.27
2022-10-09T22:13:55.268Z,16.73
2022-10-09T22:16:22.295Z,23.15
2022-10-09T22:18:49.230Z,16.65
2022-10-09T22:21:16.869Z,15.10
2022-10-09T22:23:43.741Z,16.70
2022-10-09T22:26:13.614Z,17.52
2022-10-09T22:28:40.727Z,22.77
2022-10-09T22:31:11.325Z,19.35
2022-10-09T22:33:38.473Z,19.15
2022-10-09T22:36:07.151Z,15.25
2022-10-09T22:38:34.011Z,12.48
2022-10-09T22:41:06.159Z,12.23
2022-10-09T22:43:33.078Z,18.33
2022-10-09T22:46:00.107Z,14.82
2022-10-09T22:48:26.998Z,10.77
2022-10-09T22:50:53.825Z,12.93
2022-10-09T22:53:20.916Z,11.55
2022-10-09T22:55:47.733Z,16.10
2022-10-09T22:58:14.784Z,14.82
2022-10-09T23:00:41.691Z,14.88
2022-10-09T23:03:08.997Z,16.50
2022-10-09T23:05:35.997Z,15.13
2022-10-09T23:08:03.043Z,13.93
2022-10-09T23:10:29.802Z,11.93
2022-10-09T23:12:56.853Z,14.73
2022-10-09T23:15:23.801Z,20.90
2022-10-09T23:17:51.113Z,13.98
2022-10-09T23:20:18.058Z,14.52
2022-10-09T23:22:45.044Z,13.10
2022-10-09T23:25:11.867Z,15.00
2022-10-09T23:27:38.835Z,13.70
2022-10-09T23:30:06.098Z,14.38
2022-10-09T23:32:33.134Z,15.05
2022-10-09T23:34:59.933Z,10.70
2022-10-09T23:37:27.033Z,11.95
2022-10-09T23:39:53.814Z,20.48
2022-10-09T23:42:21.028Z,16.15
2022-10-09T23:44:47.780Z,18.08
2022-10-09T23:47:14.860Z,16.77
2022-10-09T23:49:41.650Z,19.50
2022-10-09T23:52:08.746Z,20.80
2022-10-09T23:54:35.510Z,26.10
2022-10-09T23:57:02.549Z,21.63
2022-10-09T23:59:29.310Z,18.85
